Time;durP1;ratioP1;P1;durP2;ratioP2;P2;SDS_P1;SDS_P2;PMS_P1;PMS_P2;Temp;Humidity;BMP_temperature;BMP_pressure;BME280_temperature;BME280_humidity;BME280_pressure;Samples;Min_cycle;Max_cycle;Signal;HPM_P1;HPM_P2
2023/07/21 00:00:15;;;;;;;4.67;2.00;;;;;;;24.03;54.23;99833.50;5056007;28;20250;-63
2023/07/21 00:02:46;;;;;;;3.03;1.83;;;;;;;24.05;53.99;99823.16;5031399;28;20148;-64
2023/07/21 00:05:13;;;;;;;3.40;1.77;;;;;;;24.06;53.97;99821.91;5048768;28;20446;-62
2023/07/21 00:07:39;;;;;;;5.93;2.47;;;;;;;24.08;54.22;99825.16;5066689;28;20439;-63
2023/07/21 00:10:07;;;;;;;4.73;2.00;;;;;;;24.08;54.13;99822.28;5068317;28;20421;-62
2023/07/21 00:12:34;;;;;;;3.57;2.13;;;;;;;24.08;54.01;99816.50;5069130;28;20253;-63
2023/07/21 00:15:17;;;;;;;4.73;1.73;;;;;;;24.10;53.91;99828.47;5065584;28;20487;-63
2023/07/21 00:17:49;;;;;;;3.33;2.00;;;;;;;24.09;53.68;99823.91;5049077;28;20515;-64
2023/07/21 00:20:19;;;;;;;3.30;2.03;;;;;;;24.09;53.93;99812.38;5049630;28;20426;-63
2023/07/21 00:22:45;;;;;;;2.87;1.77;;;;;;;24.10;53.82;99811.16;5049680;28;20755;-64
2023/07/21 00:25:11;;;;;;;4.70;1.73;;;;;;;24.11;53.37;99809.91;5052077;28;20461;-62
2023/07/21 00:27:41;;;;;;;2.90;1.73;;;;;;;24.11;54.00;99806.19;5066068;28;20602;-62
2023/07/21 00:30:07;;;;;;;3.60;2.07;;;;;;;24.11;54.09;99807.00;5069566;28;20503;-62
2023/07/21 00:32:37;;;;;;;2.93;1.77;;;;;;;24.11;54.19;99803.28;5049446;28;20422;-62
2023/07/21 00:35:05;;;;;;;3.10;1.53;;;;;;;24.11;54.22;99809.91;5049440;28;20225;-63
2023/07/21 00:37:30;;;;;;;2.50;1.57;;;;;;;24.11;54.22;99795.47;5051108;28;20968;-62
2023/07/21 00:39:56;;;;;;;4.53;1.60;;;;;;;24.13;54.37;99809.47;5050637;28;20426;-63
2023/07/21 00:42:21;;;;;;;4.03;2.20;;;;;;;24.12;54.38;99802.88;5069176;28;20175;-63
2023/07/21 00:44:47;;;;;;;3.37;1.70;;;;;;;24.12;54.12;99810.69;5060656;28;20183;-63
2023/07/21 00:47:13;;;;;;;3.20;1.90;;;;;;;24.11;53.95;99807.00;5050138;28;20171;-63
2023/07/21 00:49:39;;;;;;;3.40;1.50;;;;;;;24.11;54.79;99812.78;5068513;28;20804;-63
2023/07/21 00:52:04;;;;;;;7.10;1.93;;;;;;;24.11;54.16;99804.13;5050297;28;20513;-63
2023/07/21 00:54:31;;;;;;;3.33;1.63;;;;;;;24.11;54.09;99809.91;5056627;28;20190;-63
2023/07/21 00:56:57;;;;;;;2.90;1.90;;;;;;;24.10;54.18;99799.59;5068094;28;20684;-64
2023/07/21 00:59:22;;;;;;;3.00;1.90;;;;;;;24.11;54.01;99800.41;5059686;28;20433;-63
2023/07/21 01:01:48;;;;;;;3.07;1.47;;;;;;;24.10;54.29;99799.59;5049109;28;20179;-64
2023/07/21 01:04:13;;;;;;;4.40;1.80;;;;;;;24.11;54.14;99801.25;5051495;28;20675;-63
2023/07/21 01:06:38;;;;;;;4.13;1.90;;;;;;;24.11;54.52;99804.13;5030901;28;20161;-64
2023/07/21 01:09:06;;;;;;;3.53;1.67;;;;;;;24.11;54.58;99788.88;5020496;28;20183;-62
2023/07/21 01:11:32;;;;;;;2.97;1.80;;;;;;;24.11;54.71;99798.34;5050319;28;20642;-64
2023/07/21 01:13:57;;;;;;;3.60;1.90;;;;;;;24.11;54.43;99804.13;5063889;28;20426;-62
2023/07/21 01:16:23;;;;;;;3.73;2.00;;;;;;;24.12;54.61;99794.22;5033042;28;20877;-63
2023/07/21 01:18:49;;;;;;;4.23;1.50;;;;;;;24.12;54.60;99804.94;5049167;28;20870;-63
2023/07/21 01:21:15;;;;;;;3.67;1.47;;;;;;;24.12;54.72;99799.97;5049510;28;20175;-62
2023/07/21 01:24:26;;;;;;;2.63;1.70;;;;;;;24.12;54.80;99805.75;5046591;28;20498;-62
2023/07/21 01:26:51;;;;;;;3.13;1.63;;;;;;;24.12;54.15;99807.81;5065524;28;20706;-62
2023/07/21 01:29:18;;;;;;;2.47;1.53;;;;;;;24.13;54.98;99801.63;5052951;28;20469;-64
2023/07/21 01:31:43;;;;;;;2.90;1.70;;;;;;;24.11;54.69;99804.13;5057189;28;20175;-62
2023/07/21 01:34:09;;;;;;;3.50;2.13;;;;;;;24.11;54.83;99804.13;5047103;28;21014;-62
2023/07/21 01:36:36;;;;;;;4.70;1.80;;;;;;;24.11;54.75;99801.25;5068255;28;20194;-62
2023/07/21 01:39:03;;;;;;;3.30;1.60;;;;;;;24.12;54.70;99799.16;5030234;28;20761;-63
2023/07/21 01:41:29;;;;;;;2.20;1.50;;;;;;;24.12;54.74;99799.16;5049471;28;20456;-62
2023/07/21 01:43:55;;;;;;;3.07;1.50;;;;;;;24.11;54.89;99798.34;5067320;28;20527;-63
2023/07/21 01:46:20;;;;;;;2.17;1.50;;;;;;;24.11;54.71;99798.34;5039944;28;20968;-62
2023/07/21 01:48:47;;;;;;;2.60;1.80;;;;;;;24.11;54.79;99797.53;5058962;28;20199;-62
2023/07/21 01:51:14;;;;;;;2.80;1.77;;;;;;;24.12;54.39;99793.38;5042605;28;20874;-63
2023/07/21 01:53:40;;;;;;;3.27;2.00;;;;;;;24.11;55.01;99788.88;5013168;28;20433;-62
2023/07/21 01:56:12;;;;;;;3.67;1.87;;;;;;;24.12;54.96;99796.28;5023281;28;20433;-64
2023/07/21 01:58:37;;;;;;;3.70;2.03;;;;;;;24.10;54.95;99788.06;5067446;28;20235;-62
2023/07/21 02:01:03;;;;;;;4.10;1.50;;;;;;;24.10;54.84;99782.31;5043749;28;20476;-63
2023/07/21 02:03:29;;;;;;;3.87;1.73;;;;;;;24.11;54.97;99781.06;5029538;28;20167;-63
2023/07/21 02:05:54;;;;;;;3.90;2.00;;;;;;;24.11;55.01;99786.00;5028633;28;20762;-63
2023/07/21 02:08:21;;;;;;;2.30;1.40;;;;;;;24.10;54.91;99776.53;5030305;28;20566;-63
2023/07/21 02:10:47;;;;;;;3.00;1.90;;;;;;;24.10;55.21;99779.41;5046367;28;20183;-62
2023/07/21 02:13:14;;;;;;;3.70;1.70;;;;;;;24.11;54.81;99781.06;5042094;28;21285;-63
2023/07/21 02:15:40;;;;;;;3.20;1.93;;;;;;;24.10;54.97;99765.00;5057485;28;20214;-63
2023/07/21 02:18:06;;;;;;;2.90;1.83;;;;;;;24.10;54.93;99770.75;5066269;28;20488;-62
2023/07/21 02:20:31;;;;;;;3.13;1.77;;;;;;;24.10;55.07;99762.13;5050078;28;20277;-62
2023/07/21 02:22:57;;;;;;;3.00;1.40;;;;;;;24.10;54.95;99765.00;5048135;28;20182;-62
2023/07/21 02:25:23;;;;;;;2.87;1.63;;;;;;;24.10;54.81;99753.47;5050649;28;20202;-64
2023/07/21 02:27:48;;;;;;;2.70;1.53;;;;;;;24.10;54.88;99764.16;5029844;28;20275;-64
2023/07/21 02:30:13;;;;;;;3.00;1.57;;;;;;;24.10;55.03;99761.28;5068493;28;20179;-64
2023/07/21 02:32:39;;;;;;;4.07;1.63;;;;;;;24.10;55.12;99767.06;5056551;28;20182;-62
2023/07/21 02:35:05;;;;;;;3.23;1.77;;;;;;;24.10;55.10;99767.06;5072658;28;20178;-64
2023/07/21 02:37:31;;;;;;;2.47;1.40;;;;;;;24.10;54.48;99764.16;5073398;28;20152;-63
2023/07/21 02:39:56;;;;;;;2.50;1.40;;;;;;;24.09;55.00;99763.34;5071087;28;20433;-62
2023/07/21 02:42:22;;;;;;;3.67;2.07;;;;;;;24.08;54.81;99763.78;5072588;28;20240;-63
2023/07/21 02:44:47;;;;;;;2.93;1.77;;;;;;;24.09;54.65;99759.66;5073322;28;20179;-63
2023/07/21 02:47:16;;;;;;;2.93;1.90;;;;;;;24.08;54.32;99764.59;5073455;28;20175;-62
2023/07/21 02:49:42;;;;;;;6.83;2.00;;;;;;;24.07;54.21;99757.19;5066689;28;20199;-63
2023/07/21 02:52:07;;;;;;;2.93;1.50;;;;;;;24.06;54.48;99764.22;5053784;28;20921;-63
2023/07/21 02:54:33;;;;;;;3.07;1.90;;;;;;;24.06;54.53;99761.34;5021288;28;20543;-61
2023/07/21 02:56:58;;;;;;;2.13;1.43;;;;;;;24.06;54.66;99755.56;5067325;28;20183;-63
2023/07/21 02:59:26;;;;;;;3.40;1.80;;;;;;;24.08;54.68;99758.03;5055689;28;20155;-63
2023/07/21 03:01:54;;;;;;;3.67;1.70;;;;;;;24.07;54.84;99757.19;5069901;28;20198;-62
2023/07/21 03:04:26;;;;;;;2.73;2.00;;;;;;;24.08;54.67;99755.16;5055486;28;20445;-63
2023/07/21 03:06:52;;;;;;;3.70;1.97;;;;;;;24.08;54.68;99749.38;5038524;28;20424;-63
2023/07/21 03:09:17;;;;;;;2.83;1.77;;;;;;;24.06;54.61;99744.03;5069293;28;20461;-63
2023/07/21 03:11:43;;;;;;;3.93;1.53;;;;;;;24.06;54.76;99744.03;5056581;28;20182;-64
2023/07/21 03:14:09;;;;;;;2.53;1.60;;;;;;;24.05;54.72;99745.28;5052905;28;20179;-62
2023/07/21 03:16:35;;;;;;;3.47;2.10;;;;;;;24.07;54.73;99756.38;5071031;28;20234;-63
2023/07/21 03:19:01;;;;;;;2.60;1.57;;;;;;;24.07;54.64;99760.09;5054682;28;20428;-63
2023/07/21 03:21:26;;;;;;;2.77;1.70;;;;;;;24.05;54.50;99759.72;5071317;28;20877;-62
2023/07/21 03:23:52;;;;;;;2.97;1.70;;;;;;;24.06;54.33;99766.28;5074430;28;20160;-62
2023/07/21 03:26:17;;;;;;;2.50;1.67;;;;;;;24.04;54.33;99763.81;5072617;28;20185;-61
2023/07/21 03:28:43;;;;;;;2.90;1.60;;;;;;;24.04;54.65;99760.94;5071409;28;20210;-62
2023/07/21 03:31:11;;;;;;;4.47;1.80;;;;;;;24.05;54.75;99762.59;5073759;28;20488;-62
2023/07/21 03:33:37;;;;;;;6.93;2.00;;;;;;;24.03;54.27;99762.19;5071059;28;20182;-63
2023/07/21 03:36:04;;;;;;;3.10;1.87;;;;;;;24.04;54.23;99772.47;5077000;28;21279;-63
2023/07/21 03:38:31;;;;;;;3.37;2.10;;;;;;;24.03;54.35;99767.16;5052914;28;20201;-63
2023/07/21 03:41:04;;;;;;;4.47;1.57;;;;;;;24.03;54.33;99767.97;5077848;28;20856;-63
2023/07/21 03:43:29;;;;;;;3.93;2.13;;;;;;;24.03;54.36;99759.31;5069952;28;20495;-64
2023/07/21 03:45:57;;;;;;;3.20;2.13;;;;;;;24.03;54.36;99772.91;5051884;28;20444;-63
2023/07/21 03:48:23;;;;;;;3.20;1.77;;;;;;;24.01;54.26;99764.69;5068593;28;20249;-63
2023/07/21 03:50:49;;;;;;;2.37;1.50;;;;;;;24.03;54.24;99767.16;5075525;28;20428;-63
2023/07/21 03:53:14;;;;;;;3.37;1.67;;;;;;;24.01;54.46;99758.94;5077380;28;20417;-64
2023/07/21 03:55:41;;;;;;;3.17;1.60;;;;;;;24.01;54.19;99753.16;5069024;28;20179;-63
2023/07/21 03:58:06;;;;;;;4.17;1.97;;;;;;;24.01;54.39;99758.94;5039114;28;20185;-63
2023/07/21 04:00:33;;;;;;;2.53;1.67;;;;;;;24.00;54.35;99760.19;5045715;28;20878;-62
2023/07/21 04:02:59;;;;;;;3.20;2.10;;;;;;;24.01;54.52;99758.09;5049799;28;20179;-63
2023/07/21 04:05:25;;;;;;;2.90;1.53;;;;;;;24.01;54.02;99763.88;5047584;28;20480;-63
2023/07/21 04:07:50;;;;;;;5.10;2.10;;;;;;;24.00;55.03;99757.31;5029694;28;20172;-63
2023/07/21 04:10:16;;;;;;;3.77;1.80;;;;;;;24.00;54.25;99763.06;5051618;28;20438;-64
2023/07/21 04:12:41;;;;;;;2.43;1.43;;;;;;;24.00;54.46;99756.47;5029323;28;20168;-64
2023/07/21 04:15:07;;;;;;;3.10;1.60;;;;;;;23.99;54.55;99752.75;5036994;28;20187;-62
2023/07/21 04:17:33;;;;;;;2.20;1.37;;;;;;;24.00;54.36;99754.41;5069438;28;20223;-63
2023/07/21 04:19:58;;;;;;;2.97;1.70;;;;;;;23.99;54.41;99755.63;5067728;28;20183;-62
2023/07/21 04:22:23;;;;;;;2.30;1.60;;;;;;;23.98;54.51;99742.47;5069312;28;20186;-63
2023/07/21 04:24:49;;;;;;;4.37;2.10;;;;;;;23.99;54.31;99743.31;5048329;28;20191;-63
2023/07/21 04:27:15;;;;;;;3.10;1.73;;;;;;;23.99;54.32;99744.09;5051364;28;20201;-63
2023/07/21 04:29:40;;;;;;;4.43;2.03;;;;;;;23.99;54.27;99744.09;5068201;28;20269;-62
2023/07/21 04:32:06;;;;;;;3.53;2.00;;;;;;;23.98;54.41;99745.34;5050205;28;20198;-62
2023/07/21 04:34:31;;;;;;;3.43;1.70;;;;;;;23.98;54.34;99750.31;5048404;28;20182;-64
2023/07/21 04:36:57;;;;;;;3.33;1.70;;;;;;;23.98;54.37;99751.13;5050506;28;20184;-64
2023/07/21 04:39:22;;;;;;;4.07;1.87;;;;;;;23.98;54.45;99748.25;5070472;28;20178;-63
2023/07/21 04:41:48;;;;;;;3.13;1.87;;;;;;;23.98;54.42;99756.09;5071038;28;20186;-63
2023/07/21 04:44:13;;;;;;;3.33;2.07;;;;;;;23.98;54.29;99754.00;5050721;28;20182;-63
2023/07/21 04:46:38;;;;;;;4.47;1.77;;;;;;;23.98;54.33;99750.31;5066514;28;20183;-63
2023/07/21 04:49:07;;;;;;;3.73;2.00;;;;;;;23.97;54.13;99751.56;5069377;28;20253;-63
2023/07/21 04:51:33;;;;;;;3.53;1.60;;;;;;;23.96;54.33;99755.69;5064862;28;20266;-63
2023/07/21 04:53:58;;;;;;;3.20;1.97;;;;;;;23.97;54.38;99761.03;5075397;28;20451;-62
2023/07/21 04:56:25;;;;;;;2.77;1.70;;;;;;;23.97;54.22;99766.81;5061884;28;20186;-62
2023/07/21 04:58:50;;;;;;;3.23;1.70;;;;;;;23.97;54.22;99763.09;5068185;28;20491;-63
2023/07/21 05:01:16;;;;;;;5.00;1.87;;;;;;;23.96;54.26;99768.06;5065436;28;20441;-63
2023/07/21 05:03:42;;;;;;;2.83;1.70;;;;;;;23.96;54.26;99770.94;5057750;28;20883;-62
2023/07/21 05:06:09;;;;;;;3.17;1.50;;;;;;;23.96;54.18;99767.22;5047784;28;20735;-62
2023/07/21 05:08:35;;;;;;;3.20;2.03;;;;;;;23.97;53.87;99769.69;5049931;28;20453;-62
2023/07/21 05:11:00;;;;;;;2.70;1.60;;;;;;;23.96;54.15;99764.34;5049127;28;20873;-62
2023/07/21 05:13:26;;;;;;;3.30;1.70;;;;;;;23.97;54.09;99763.09;5042658;28;20225;-62
2023/07/21 05:15:51;;;;;;;3.70;1.73;;;;;;;23.96;53.80;99764.34;5039005;28;20180;-63
2023/07/21 05:18:17;;;;;;;3.40;1.80;;;;;;;23.96;54.24;99761.47;5014189;28;20170;-62
2023/07/21 05:20:42;;;;;;;3.40;1.87;;;;;;;23.96;53.89;99762.28;5048434;28;20195;-63
2023/07/21 05:23:09;;;;;;;3.27;1.90;;;;;;;23.95;53.93;99754.91;5049048;28;20179;-63
2023/07/21 05:25:34;;;;;;;3.87;1.90;;;;;;;23.95;54.17;99759.81;5055256;28;20178;-63
2023/07/21 05:28:00;;;;;;;2.80;1.63;;;;;;;23.95;54.27;99760.66;5064901;28;20461;-63
2023/07/21 05:30:25;;;;;;;3.70;1.93;;;;;;;23.96;54.17;99759.41;5031629;28;20195;-62
2023/07/21 05:32:50;;;;;;;2.60;1.50;;;;;;;23.97;54.07;99757.31;5076630;28;20228;-63
2023/07/21 05:35:16;;;;;;;3.63;1.80;;;;;;;23.98;53.93;99750.31;5079030;28;20186;-63
2023/07/21 05:37:41;;;;;;;3.80;1.93;;;;;;;23.99;54.12;99752.75;5061672;28;20178;-65
2023/07/21 05:40:09;;;;;;;2.80;1.70;;;;;;;24.00;54.20;99751.53;5056794;28;20182;-62
2023/07/21 05:42:35;;;;;;;2.70;1.60;;;;;;;23.99;54.15;99749.88;5076444;28;20254;-62
2023/07/21 05:45:02;;;;;;;2.40;1.57;;;;;;;23.99;54.28;99757.72;5077288;28;20424;-63
2023/07/21 05:47:27;;;;;;;3.63;1.77;;;;;;;23.97;54.29;99761.03;5046855;28;20429;-63
2023/07/21 05:50:00;;;;;;;3.10;1.70;;;;;;;23.97;54.29;99771.75;5063342;28;20468;-63
2023/07/21 05:52:26;;;;;;;2.93;1.60;;;;;;;23.96;54.34;99773.81;5048776;28;20191;-62
2023/07/21 05:54:51;;;;;;;3.50;2.10;;;;;;;23.95;54.07;99782.91;5055448;28;20448;-63
2023/07/21 05:57:16;;;;;;;4.70;1.70;;;;;;;23.92;54.11;99784.56;5062546;28;20186;-63
2023/07/21 05:59:43;;;;;;;4.97;2.00;;;;;;;24.11;54.64;99783.94;5064500;28;20258;-63
2023/07/21 06:02:08;;;;;;;11.13;3.90;;;;;;;24.50;56.78;99790.00;5057408;28;20182;-63
2023/07/21 06:04:33;;;;;;;14.20;4.90;;;;;;;24.78;57.56;99788.81;5055609;28;20546;-64
2023/07/21 06:06:59;;;;;;;8.70;3.37;;;;;;;24.55;56.57;99782.91;5071900;28;20319;-63
2023/07/21 06:09:25;;;;;;;12.27;2.53;;;;;;;24.32;56.65;99786.53;5069232;28;20190;-63
2023/07/21 06:11:50;;;;;;;7.77;2.77;;;;;;;24.15;54.88;99789.66;5061672;28;20538;-63
2023/07/21 06:14:16;;;;;;;8.10;2.47;;;;;;;24.07;53.93;99797.56;5050060;28;20511;-63
2023/07/21 06:16:42;;;;;;;7.20;2.57;;;;;;;23.90;52.33;99795.72;5013733;28;20738;-64
2023/07/21 06:19:07;;;;;;;8.40;3.10;;;;;;;23.91;53.42;99777.19;5014208;28;20183;-62
2023/07/21 06:21:33;;;;;;;12.80;3.80;;;;;;;23.93;52.73;99780.44;5013303;28;20223;-62
2023/07/21 06:23:58;;;;;;;7.33;2.33;;;;;;;23.90;53.47;99784.19;5040817;28;20192;-64
2023/07/21 06:26:24;;;;;;;4.50;2.83;;;;;;;24.06;53.63;99789.34;5054819;28;20170;-62
2023/07/21 06:28:51;;;;;;;4.63;2.47;;;;;;;24.14;54.83;99794.59;5012611;28;20214;-63
2023/07/21 06:31:16;;;;;;;8.33;2.60;;;;;;;24.12;54.96;99793.38;5028721;28;20183;-62
2023/07/21 06:33:42;;;;;;;9.07;2.63;;;;;;;24.10;54.12;99799.59;5058891;28;20440;-63
2023/07/21 06:36:07;;;;;;;5.70;2.80;;;;;;;23.93;51.46;99796.94;5051560;28;20185;-61
2023/07/21 06:38:33;;;;;;;10.13;2.87;;;;;;;23.96;52.64;99798.94;5074594;28;20182;-62
2023/07/21 06:40:59;;;;;;;8.67;2.50;;;;;;;23.97;52.62;99791.91;5069427;28;20630;-61
2023/07/21 06:43:25;;;;;;;5.30;2.53;;;;;;;23.95;51.73;99795.25;5075266;28;20853;-62
2023/07/21 06:45:50;;;;;;;13.70;3.17;;;;;;;23.94;52.22;99799.38;5066471;28;20432;-62
2023/07/21 06:48:16;;;;;;;4.77;2.13;;;;;;;23.90;52.47;99784.19;5067610;28;20207;-63
2023/07/21 06:50:41;;;;;;;4.97;2.40;;;;;;;23.92;52.72;99787.47;5072562;28;20190;-64
2023/07/21 06:53:07;;;;;;;5.37;2.40;;;;;;;23.91;52.24;99787.88;5061164;28;20182;-62
2023/07/21 06:55:33;;;;;;;4.07;2.20;;;;;;;23.85;51.99;99789.56;5067241;28;20726;-63
2023/07/21 06:57:59;;;;;;;5.53;2.63;;;;;;;23.78;52.27;99789.66;5048374;28;20433;-62
2023/07/21 07:00:24;;;;;;;3.50;2.07;;;;;;;23.78;52.43;99789.66;5054062;28;20175;-62
2023/07/21 07:02:50;;;;;;;6.80;2.30;;;;;;;23.74;52.53;99783.91;5055837;28;20530;-62
2023/07/21 07:05:16;;;;;;;7.47;2.87;;;;;;;23.79;52.82;99785.53;5063996;28;20256;-61
2023/07/21 07:07:42;;;;;;;4.73;2.60;;;;;;;23.79;53.00;99786.34;5061558;28;20187;-64
2023/07/21 07:10:08;;;;;;;5.63;2.57;;;;;;;23.77;51.55;99779.34;5085340;28;20466;-62
2023/07/21 07:12:34;;;;;;;8.93;2.83;;;;;;;23.72;52.23;99786.41;5059144;28;20279;-64
2023/07/21 07:14:59;;;;;;;7.90;2.90;;;;;;;23.72;52.45;99783.53;5077684;28;20804;-63
2023/07/21 07:17:25;;;;;;;5.60;2.30;;;;;;;23.71;52.54;99790.56;5045334;28;20242;-63
2023/07/21 07:19:50;;;;;;;8.73;2.90;;;;;;;23.69;52.27;99793.03;5078809;28;20174;-62
2023/07/21 07:22:15;;;;;;;6.93;2.93;;;;;;;23.70;53.35;99794.69;5075286;28;20220;-64
2023/07/21 07:24:41;;;;;;;5.93;2.60;;;;;;;23.73;54.61;99793.81;5084941;28;20531;-62
2023/07/21 07:27:07;;;;;;;11.07;3.70;;;;;;;23.81;54.85;99788.78;5059015;28;20240;-63
2023/07/21 07:29:34;;;;;;;14.63;3.30;;;;;;;23.83;54.96;99783.44;5056948;28;20196;-62
2023/07/21 07:31:59;;;;;;;11.43;2.90;;;;;;;23.85;55.47;99796.16;5052089;28;20604;-63
2023/07/21 07:34:25;;;;;;;9.47;2.90;;;;;;;23.87;54.85;99789.94;5065681;28;20440;-62
2023/07/21 07:36:51;;;;;;;6.23;2.50;;;;;;;23.87;54.38;99790.78;5068766;28;20301;-61
2023/07/21 07:39:18;;;;;;;6.27;2.60;;;;;;;23.90;54.50;99792.84;5045578;28;20262;-62
2023/07/21 07:41:44;;;;;;;8.33;2.43;;;;;;;23.90;54.49;99789.97;5052592;28;20433;-61
2023/07/21 07:44:11;;;;;;;8.30;2.70;;;;;;;23.91;54.39;99787.88;5049511;28;20463;-63
2023/07/21 07:46:37;;;;;;;4.63;2.40;;;;;;;23.92;54.39;99790.34;5063472;28;20436;-62
2023/07/21 07:49:03;;;;;;;4.40;2.80;;;;;;;23.92;54.64;99793.22;5069262;28;21119;-62
2023/07/21 07:51:29;;;;;;;6.13;2.70;;;;;;;23.93;54.51;99789.09;5069175;28;20186;-62
2023/07/21 07:53:55;;;;;;;9.40;2.80;;;;;;;23.94;54.29;99792.81;5068688;28;20428;-63
2023/07/21 07:56:21;;;;;;;4.87;2.23;;;;;;;23.93;54.80;99791.16;5036934;28;21077;-63
2023/07/21 07:58:47;;;;;;;5.63;2.50;;;;;;;23.92;54.66;99793.22;5049866;28;20166;-63
2023/07/21 08:01:13;;;;;;;8.43;3.20;;;;;;;23.92;54.55;99796.13;5051740;28;20851;-61
2023/07/21 08:03:43;;;;;;;9.20;2.60;;;;;;;23.91;54.74;99799.41;5049013;28;20515;-61
2023/07/21 08:06:10;;;;;;;20.40;3.00;;;;;;;23.91;54.70;99799.41;5051153;28;20207;-63
2023/07/21 08:08:36;;;;;;;5.20;2.90;;;;;;;23.90;55.02;99798.63;5049044;28;20541;-61
2023/07/21 08:11:01;;;;;;;12.07;2.87;;;;;;;23.90;54.85;99792.03;5048263;28;20429;-61
2023/07/21 08:13:27;;;;;;;6.30;2.60;;;;;;;23.91;54.73;99793.66;5065839;28;20236;-62
2023/07/21 08:15:52;;;;;;;4.97;2.50;;;;;;;23.90;54.84;99797.78;5068729;28;20228;-63
2023/07/21 08:18:18;;;;;;;7.30;2.80;;;;;;;23.90;54.63;99792.03;5061172;28;20184;-62
2023/07/21 08:20:44;;;;;;;5.10;2.47;;;;;;;23.90;54.09;99792.84;5047552;28;20214;-63
2023/07/21 08:23:10;;;;;;;5.27;2.33;;;;;;;23.90;54.56;99787.09;5047300;28;20434;-63
2023/07/21 08:25:35;;;;;;;7.80;3.17;;;;;;;23.90;54.78;99789.13;5050626;28;20199;-62
2023/07/21 08:28:03;;;;;;;5.20;2.50;;;;;;;23.89;54.47;99794.06;5061530;28;20259;-63
2023/07/21 08:30:29;;;;;;;6.60;3.20;;;;;;;23.90;54.56;99792.03;5068692;28;20185;-64
2023/07/21 08:32:58;;;;;;;4.67;2.37;;;;;;;23.91;54.47;99793.66;5047622;28;20979;-63
2023/07/21 08:35:23;;;;;;;9.70;2.70;;;;;;;23.91;54.64;99800.25;5047785;28;20424;-61
2023/07/21 08:37:49;;;;;;;5.27;2.40;;;;;;;23.91;54.54;99791.59;5050793;28;20442;-61
2023/07/21 08:40:16;;;;;;;5.67;2.67;;;;;;;23.90;54.43;99789.13;5051309;28;20187;-62
2023/07/21 08:42:41;;;;;;;6.10;2.87;;;;;;;23.89;54.46;99790.38;5067325;28;20169;-62
2023/07/21 08:45:08;;;;;;;5.00;2.30;;;;;;;23.89;54.69;99785.44;5065295;28;20441;-63
2023/07/21 08:47:34;;;;;;;8.93;2.60;;;;;;;23.90;54.38;99784.19;5048156;28;20187;-62
2023/07/21 08:49:59;;;;;;;5.63;2.40;;;;;;;23.90;54.33;99789.97;5047274;28;20543;-62
2023/07/21 08:52:25;;;;;;;5.00;2.50;;;;;;;23.90;54.53;99795.72;5031582;28;20195;-63
2023/07/21 08:54:50;;;;;;;3.10;2.10;;;;;;;23.91;54.36;99791.59;5054648;28;20179;-63
2023/07/21 08:57:16;;;;;;;8.73;3.00;;;;;;;23.90;54.31;99792.84;5064315;28;20187;-61
2023/07/21 08:59:41;;;;;;;2.73;1.93;;;;;;;23.90;54.17;99795.72;5068907;28;20175;-63
2023/07/21 09:02:07;;;;;;;4.30;2.30;;;;;;;23.91;54.23;99802.31;5050103;28;20170;-63
2023/07/21 09:04:33;;;;;;;7.63;2.43;;;;;;;23.91;54.38;99790.75;5050454;28;20633;-62
2023/07/21 09:07:00;;;;;;;3.60;2.37;;;;;;;23.91;54.04;99785.00;5057116;28;20532;-62
2023/07/21 09:09:29;;;;;;;5.77;2.43;;;;;;;23.90;54.37;99787.09;5066518;28;20206;-62
2023/07/21 09:12:05;;;;;;;5.83;2.60;;;;;;;23.91;53.98;99800.25;5045884;28;20499;-62
2023/07/21 09:14:38;;;;;;;4.00;2.20;;;;;;;23.93;53.89;99796.94;5041425;28;20424;-64
2023/07/21 09:17:05;;;;;;;4.50;2.20;;;;;;;23.92;53.90;99783.75;5021450;28;20478;-61
2023/07/21 09:19:34;;;;;;;4.10;2.40;;;;;;;23.92;53.86;99781.69;5011757;28;20449;-69
2023/07/21 09:21:59;;;;;;;5.87;2.57;;;;;;;23.92;54.08;99766.44;5037045;28;20851;-68
2023/07/21 09:24:25;;;;;;;4.03;2.20;;;;;;;23.92;54.09;99764.38;5047895;28;20409;-70
2023/07/21 09:27:13;;;;;;;6.80;2.60;;;;;;;23.92;54.16;99773.03;5044922;28;20188;-67
2023/07/21 09:29:39;;;;;;;3.70;2.03;;;;;;;23.94;53.92;99772.63;5012276;28;20581;-69
2023/07/21 09:32:13;;;;;;;4.90;2.50;;;;;;;23.94;53.82;99776.31;5011357;28;20521;-61
2023/07/21 09:35:00;;;;;;;2.60;1.90;;;;;;;23.93;54.22;99783.31;5047027;28;20418;-62
2023/07/21 09:37:26;;;;;;;4.67;2.40;;;;;;;23.93;54.24;99789.09;5042404;28;20868;-64
2023/07/21 09:39:54;;;;;;;5.80;3.17;;;;;;;23.92;54.35;99790.34;5045395;28;20520;-63
2023/07/21 09:42:21;;;;;;;4.27;2.17;;;;;;;23.94;54.21;99792.81;5046330;28;20458;-63
2023/07/21 09:44:47;;;;;;;6.40;2.60;;;;;;;23.93;53.55;99789.09;5027690;28;20552;-61
2023/07/21 09:47:13;;;;;;;5.07;2.60;;;;;;;23.93;53.93;99789.09;5024196;28;20446;-62
2023/07/21 09:49:39;;;;;;;3.90;2.43;;;;;;;23.93;53.64;99779.63;5046454;28;20458;-63
2023/07/21 09:52:04;;;;;;;5.87;2.97;;;;;;;23.94;53.73;99781.25;5042424;28;20883;-63
2023/07/21 09:54:30;;;;;;;4.10;2.23;;;;;;;23.93;53.70;99774.66;5024247;28;20180;-61
2023/07/21 09:56:56;;;;;;;5.43;2.20;;;;;;;23.94;53.53;99781.25;5029980;28;20195;-62
2023/07/21 09:59:21;;;;;;;4.63;2.37;;;;;;;23.94;53.97;99775.50;5028079;28;20184;-64
2023/07/21 10:01:47;;;;;;;4.60;2.30;;;;;;;23.94;53.64;99781.25;5027327;28;20172;-62
2023/07/21 10:04:13;;;;;;;4.43;2.27;;;;;;;23.93;53.62;99780.44;4996659;28;20207;-63
2023/07/21 10:06:38;;;;;;;3.93;2.27;;;;;;;23.94;53.63;99778.38;5026980;28;20191;-62
2023/07/21 10:09:08;;;;;;;4.77;2.47;;;;;;;23.94;52.76;99787.84;5035478;28;20207;-69
2023/07/21 10:11:34;;;;;;;6.00;2.47;;;;;;;23.96;50.94;99787.41;4998349;28;20188;-63
2023/07/21 10:13:59;;;;;;;5.90;2.07;;;;;;;23.95;51.89;99785.78;5041505;28;20955;-64
2023/07/21 10:16:25;;;;;;;9.83;2.50;;;;;;;23.97;51.58;99797.69;5045532;28;20250;-61
2023/07/21 10:19:11;;;;;;;4.47;2.70;;;;;;;23.96;51.90;99796.91;5009465;28;20195;-64
2023/07/21 10:21:53;;;;;;;8.90;2.90;;;;;;;23.96;51.27;99794.00;5060289;28;20189;-71
2023/07/21 10:24:28;;;;;;;6.07;2.00;;;;;;;23.96;50.79;99796.91;5065139;28;20516;-70
2023/07/21 10:27:01;;;;;;;15.33;3.20;;;;;;;23.96;51.53;99785.34;5047868;28;20417;-70
2023/07/21 10:29:27;;;;;;;12.40;2.70;;;;;;;23.96;50.98;99791.13;5060491;28;20954;-70
2023/07/21 10:31:56;;;;;;;3.10;2.03;;;;;;;23.96;51.23;99788.25;5057003;28;20449;-69
2023/07/21 10:34:26;;;;;;;7.73;2.60;;;;;;;23.98;51.27;99796.47;5057054;28;20266;-70
2023/07/21 10:36:51;;;;;;;7.47;2.10;;;;;;;23.98;50.13;99799.34;5060504;28;20992;-70
2023/07/21 10:39:20;;;;;;;4.20;2.00;;;;;;;23.99;50.46;99795.22;5046558;28;20568;-70
2023/07/21 10:41:50;;;;;;;4.30;2.10;;;;;;;23.98;50.84;99803.03;5030783;28;20183;-70
2023/07/21 10:44:15;;;;;;;5.00;2.10;;;;;;;23.98;50.02;99803.03;5051027;28;20493;-70
2023/07/21 10:46:43;;;;;;;5.70;2.00;;;;;;;23.99;49.77;99796.00;5056709;28;20445;-69
2023/07/21 10:49:12;;;;;;;3.67;2.10;;;;;;;23.98;50.12;99800.16;5047883;28;20215;-70
2023/07/21 10:51:39;;;;;;;4.00;2.37;;;;;;;23.98;49.63;99799.34;5055628;28;21241;-70
2023/07/21 10:54:04;;;;;;;4.40;1.97;;;;;;;24.00;49.59;99812.09;5058470;28;20445;-70
2023/07/21 10:56:33;;;;;;;5.40;2.00;;;;;;;24.00;49.21;99812.09;5051579;28;20436;-70
2023/07/21 10:58:59;;;;;;;3.27;2.10;;;;;;;24.00;49.42;99805.50;5062035;28;20179;-69
2023/07/21 11:01:24;;;;;;;3.93;2.00;;;;;;;24.01;49.21;99801.34;5061759;28;20441;-69
2023/07/21 11:03:50;;;;;;;5.47;2.13;;;;;;;24.00;49.53;99803.44;5059367;28;20209;-61
2023/07/21 11:06:16;;;;;;;6.50;2.10;;;;;;;23.99;49.47;99801.78;5059756;28;20221;-62
2023/07/21 11:08:42;;;;;;;7.83;1.80;;;;;;;23.99;48.95;99801.78;5055975;28;20229;-62
2023/07/21 11:11:11;;;;;;;5.50;2.50;;;;;;;23.99;49.01;99801.78;5057801;28;20441;-62
2023/07/21 11:13:39;;;;;;;3.90;2.87;;;;;;;24.00;49.45;99808.38;5058105;28;20184;-62
2023/07/21 11:16:05;;;;;;;3.93;1.97;;;;;;;24.00;48.97;99802.59;5060005;28;20505;-63
2023/07/21 11:18:30;;;;;;;4.30;2.10;;;;;;;24.00;48.91;99808.38;5054117;28;20459;-63
2023/07/21 11:20:56;;;;;;;4.03;2.07;;;;;;;24.00;49.12;99814.97;5032082;28;20192;-63
2023/07/21 11:23:22;;;;;;;6.93;1.90;;;;;;;23.99;49.33;99821.97;5064997;28;20183;-62
2023/07/21 11:26:08;;;;;;;3.03;1.97;;;;;;;23.97;49.80;99827.34;5067437;28;20186;-61
2023/07/21 11:28:34;;;;;;;5.17;1.93;;;;;;;23.95;50.43;99829.88;5049886;28;20535;-62
2023/07/21 11:31:02;;;;;;;3.40;1.90;;;;;;;23.95;51.26;99837.69;5051809;28;20415;-62